TimeEDT,TemperatureF,Dew PointF,Humidity,Sea Level PressureIn,VisibilityMPH,Wind Direction,Wind SpeedMPH,Gust SpeedMPH,PrecipitationIn,Events,Conditions,WindDirDegrees,DateUTC
12:54 AM,71.1,64.9,81,30.18,10.0,Variable,4.6,-,0.01,,Overcast,0,2008-06-13 04:54:00
1:54 AM,71.1,64.9,81,30.16,10.0,Variable,5.8,-,N/A,,Mostly Cloudy,0,2008-06-13 05:54:00
2:54 AM,66.9,66.0,97,30.16,5.0,Calm,Calm,-,N/A,,Scattered Clouds,0,2008-06-13 06:54:00
3:54 AM,66.9,64.9,93,30.15,8.0,Calm,Calm,-,N/A,,Clear,0,2008-06-13 07:54:00
4:54 AM,66.0,64.9,96,30.16,7.0,Calm,Calm,-,N/A,,Clear,0,2008-06-13 08:54:00
5:54 AM,66.0,64.9,96,30.18,5.0,Calm,Calm,-,N/A,,Scattered Clouds,0,2008-06-13 09:54:00
6:54 AM,64.9,64.9,100,30.21,5.0,Calm,Calm,-,N/A,,Partly Cloudy,0,2008-06-13 10:54:00
7:54 AM,68.0,66.0,93,30.22,5.0,Calm,Calm,-,N/A,,Clear,0,2008-06-13 11:54:00
8:54 AM,71.1,66.9,87,30.23,10.0,SW,3.5,-,N/A,,Clear,220,2008-06-13 12:54:00
9:54 AM,75.9,66.0,71,30.23,10.0,Variable,4.6,-,N/A,,Clear,0,2008-06-13 13:54:00
10:54 AM,78.1,66.0,66,30.22,10.0,Variable,5.8,-,N/A,,Mostly Cloudy,0,2008-06-13 14:54:00
11:54 AM,81.0,61.0,50,30.22,10.0,SSE,9.2,-,N/A,,Partly Cloudy,150,2008-06-13 15:54:00
12:54 PM,82.0,60.1,47,30.21,10.0,SE,10.4,-,N/A,,Mostly Cloudy,140,2008-06-13 16:54:00
1:54 PM,82.9,57.9,42,30.19,10.0,South,9.2,-,N/A,,Partly Cloudy,170,2008-06-13 17:54:00
2:54 PM,84.9,60.1,43,30.16,10.0,SSW,11.5,17.3,N/A,,Partly Cloudy,200,2008-06-13 18:54:00
3:54 PM,84.0,60.1,44,30.14,10.0,SSE,10.4,-,N/A,,Clear,160,2008-06-13 19:54:00
4:54 PM,84.0,55.9,38,30.12,10.0,SSE,12.7,-,N/A,,Clear,160,2008-06-13 20:54:00
5:54 PM,84.0,55.9,38,30.10,10.0,South,12.7,-,N/A,,Partly Cloudy,170,2008-06-13 21:54:00
6:54 PM,82.0,55.0,39,30.10,10.0,South,10.4,-,N/A,,Clear,190,2008-06-13 22:54:00
7:54 PM,80.1,57.9,47,30.11,10.0,South,9.2,-,N/A,,Clear,180,2008-06-13 23:54:00
8:54 PM,75.9,60.1,58,30.11,10.0,South,3.5,-,N/A,,Clear,170,2008-06-14 00:54:00
9:54 PM,73.9,60.1,62,30.14,10.0,Calm,Calm,-,N/A,,Clear,0,2008-06-14 01:54:00
10:54 PM,70.0,61.0,73,30.14,10.0,Calm,Calm,-,N/A,,Clear,0,2008-06-14 02:54:00
11:54 PM,69.1,62.1,78,30.14,10.0,Calm,Calm,-,N/A,,Clear,0,2008-06-14 03:54:00